Time;durP1;ratioP1;P1;durP2;ratioP2;P2;SDS_P1;SDS_P2;PMS_P1;PMS_P2;Temp;Humidity;BMP_temperature;BMP_pressure;BME280_temperature;BME280_humidity;BME280_pressure;Samples;Min_cycle;Max_cycle;Signal;HPM_P1;HPM_P2
2022/09/22 00:00:56;;;;;;;;;;;;;;;21.71;61.61;100269.59;7309131;19;129036;-38
2022/09/22 00:03:21;;;;;;;;;;;;;;;21.69;61.26;100266.28;7309419;19;129083;-37
2022/09/22 00:05:46;;;;;;;;;;;;;;;21.69;61.13;100255.81;7308999;19;130177;-37
2022/09/22 00:08:11;;;;;;;;;;;;;;;21.71;60.94;100259.13;7315343;19;129210;-37
2022/09/22 00:10:37;;;;;;;;;;;;;;;21.78;61.48;100254.25;7317238;19;130362;-37
2022/09/22 00:13:02;;;;;;;;;;;;;;;21.78;61.39;100251.66;7316601;19;129761;-37
2022/09/22 00:15:29;;;;;;;;;;;;;;;21.84;61.41;100251.13;7315832;19;130452;-37
2022/09/22 00:17:54;;;;;;;;;;;;;;;21.77;61.17;100256.03;7314819;19;130311;-37
2022/09/22 00:20:19;;;;;;;;;;;;;;;21.74;61.21;100258.88;7316349;19;129262;-38
2022/09/22 00:22:48;;;;;;;;;;;;;;;21.75;61.62;100250.06;7314299;19;131271;-37
2022/09/22 00:25:13;;;;;;;;;;;;;;;21.75;61.48;100250.06;7317123;19;129634;-37
2022/09/22 00:27:38;;;;;;;;;;;;;;;21.75;61.56;100252.69;7317454;19;129453;-37
2022/09/22 00:30:04;;;;;;;;;;;;;;;21.75;61.42;100244.00;7314939;19;129110;-37
2022/09/22 00:32:29;;;;;;;;;;;;;;;21.71;61.64;100242.59;7312525;19;130807;-38
2022/09/22 00:34:54;;;;;;;;;;;;;;;21.72;61.39;100239.00;7316717;19;129923;-37
2022/09/22 00:37:20;;;;;;;;;;;;;;;21.71;60.92;100240.81;7316665;19;130189;-38
2022/09/22 00:39:45;;;;;;;;;;;;;;;21.71;61.41;100235.56;7316851;19;129274;-37
2022/09/22 00:42:13;;;;;;;;;;;;;;;21.72;61.45;100239.84;7313622;19;129434;-37
2022/09/22 00:44:41;;;;;;;;;;;;;;;21.76;61.15;100233.44;7315592;19;130119;-37
2022/09/22 00:47:25;;;;;;;;;;;;;;;21.78;61.05;100239.38;7315533;19;129307;-37
2022/09/22 00:50:09;;;;;;;;;;;;;;;21.76;60.87;100230.84;7312783;19;130090;-37
2022/09/22 00:52:37;;;;;;;;;;;;;;;21.74;61.07;100234.47;7313561;19;129230;-37
2022/09/22 00:55:05;;;;;;;;;;;;;;;21.70;60.68;100231.28;7314966;19;130172;-37
2022/09/22 00:57:34;;;;;;;;;;;;;;;21.73;60.86;100236.25;7315216;19;129834;-37
2022/09/22 01:00:00;;;;;;;;;;;;;;;21.61;61.25;100212.88;7315323;19;129071;-37
2022/09/22 01:02:25;;;;;;;;;;;;;;;21.70;61.46;100231.28;7312769;19;130269;-37
2022/09/22 01:04:51;;;;;;;;;;;;;;;21.72;61.71;100229.38;7315553;19;129468;-37
2022/09/22 01:07:21;;;;;;;;;;;;;;;21.73;61.83;100235.44;7315069;19;129662;-37
2022/09/22 01:09:47;;;;;;;;;;;;;;;21.72;61.74;100229.38;7314200;19;128991;-37
2022/09/22 01:12:16;;;;;;;;;;;;;;;21.71;60.69;100224.28;7310869;19;151329;-37
2022/09/22 01:14:50;;;;;;;;;;;;;;;21.74;61.69;100226.63;7311835;19;130282;-37
2022/09/22 01:17:36;;;;;;;;;;;;;;;21.68;61.87;100222.72;7315319;19;128834;-37
2022/09/22 01:20:14;;;;;;;;;;;;;;;21.69;61.12;100227.00;7313480;19;128841;-38
2022/09/22 01:22:52;;;;;;;;;;;;;;;21.68;61.67;100230.56;7311680;19;130501;-37
2022/09/22 01:25:20;;;;;;;;;;;;;;;21.72;61.36;100231.16;7314386;19;130417;-37
2022/09/22 01:27:57;;;;;;;;;;;;;;;21.70;60.87;100238.31;7315347;19;129244;-37
2022/09/22 01:30:24;;;;;;;;;;;;;;;21.72;61.39;100231.16;7314294;19;129056;-37
2022/09/22 01:32:58;;;;;;;;;;;;;;;21.65;61.07;100232.63;7313614;19;130253;-37
2022/09/22 01:35:30;;;;;;;;;;;;;;;21.63;60.84;100232.75;7314264;19;131190;-37
2022/09/22 01:37:55;;;;;;;;;;;;;;;21.69;61.09;100229.63;7313826;19;128936;-37
2022/09/22 01:40:30;;;;;;;;;;;;;;;21.70;61.56;100231.28;7313114;19;128924;-37
2022/09/22 01:42:59;;;;;;;;;;;;;;;21.69;61.00;100224.41;7312964;19;129788;-37
2022/09/22 01:45:28;;;;;;;;;;;;;;;21.67;61.71;100225.47;7315573;19;129703;-37
2022/09/22 01:47:54;;;;;;;;;;;;;;;21.62;61.56;100206.69;7313454;19;129305;-37
2022/09/22 01:50:24;;;;;;;;;;;;;;;21.79;61.30;100232.34;7312684;19;129713;-37
2022/09/22 01:52:51;;;;;;;;;;;;;;;21.78;61.30;100223.66;7313568;19;129359;-37
2022/09/22 01:55:20;;;;;;;;;;;;;;;21.75;61.57;100223.88;7313972;19;131159;-37
2022/09/22 01:58:03;;;;;;;;;;;;;;;21.72;61.16;100221.53;7314214;19;129336;-37
2022/09/22 02:00:31;;;;;;;;;;;;;;;21.72;61.42;100223.31;7310467;19;129451;-38
2022/09/22 02:03:03;;;;;;;;;;;;;;;21.70;61.28;100218.19;7312470;19;130151;-37
2022/09/22 02:05:32;;;;;;;;;;;;;;;21.70;60.90;100220.00;7315137;19;130625;-37
2022/09/22 02:07:59;;;;;;;;;;;;;;;21.70;61.52;100214.78;7314534;19;128973;-37
2022/09/22 02:10:29;;;;;;;;;;;;;;;21.72;61.01;100212.84;7312685;19;129331;-37
2022/09/22 02:12:54;;;;;;;;;;;;;;;21.75;61.65;100217.84;7312063;19;129569;-37
2022/09/22 02:18:07;;;;;;;;;;;;;;;21.75;61.21;100215.22;7312350;19;129864;-37
2022/09/22 02:20:33;;;;;;;;;;;;;;;21.73;61.50;100214.50;7311978;19;128826;-38
2022/09/22 02:22:58;;;;;;;;;;;;;;;21.71;61.17;100214.66;7311628;19;130901;-37
2022/09/22 02:25:23;;;;;;;;;;;;;;;21.68;61.64;100211.44;7311949;19;129508;-36
2022/09/22 02:27:50;;;;;;;;;;;;;;;21.59;61.64;100186.84;7312863;19;131252;-37
2022/09/22 02:30:16;;;;;;;;;;;;;;;21.62;61.68;100196.22;7310921;19;129117;-37
2022/09/22 02:32:44;;;;;;;;;;;;;;;21.69;61.23;100208.69;7310117;19;130387;-37
2022/09/22 02:35:10;;;;;;;;;;;;;;;21.70;61.47;100205.13;7312513;19;129777;-38
2022/09/22 02:37:40;;;;;;;;;;;;;;;21.71;61.60;100209.41;7313511;19;129153;-37
2022/09/22 02:40:08;;;;;;;;;;;;;;;21.71;61.80;100200.72;7312879;19;129348;-37
2022/09/22 02:42:37;;;;;;;;;;;;;;;21.73;61.23;100211.91;7309721;19;129547;-37
2022/09/22 02:45:14;;;;;;;;;;;;;;;21.69;61.05;100206.09;7312974;19;129281;-37
2022/09/22 02:47:46;;;;;;;;;;;;;;;21.70;61.15;100205.13;7312896;19;130170;-37
2022/09/22 02:50:12;;;;;;;;;;;;;;;21.72;61.57;100208.44;7310315;19;129155;-37
2022/09/22 02:52:38;;;;;;;;;;;;;;;21.68;61.53;100212.25;7308350;19;129566;-37
2022/09/22 02:55:04;;;;;;;;;;;;;;;21.73;61.09;100210.09;7311077;19;131676;-37
2022/09/22 02:57:29;;;;;;;;;;;;;;;21.76;60.94;100209.03;7311902;19;129029;-37
2022/09/22 02:59:54;;;;;;;;;;;;;;;21.76;61.36;100209.03;7311626;19;129489;-37
2022/09/22 03:02:20;;;;;;;;;;;;;;;21.72;61.36;100205.81;7308879;19;129828;-37
2022/09/22 03:04:45;;;;;;;;;;;;;;;21.69;61.16;100211.31;7311829;19;129573;-37
2022/09/22 03:07:10;;;;;;;;;;;;;;;21.68;61.26;100201.78;7312307;19;129047;-37
2022/09/22 03:09:36;;;;;;;;;;;;;;;21.66;61.77;100197.66;7311446;19;129087;-37
2022/09/22 03:12:01;;;;;;;;;;;;;;;21.66;61.09;100197.66;7308595;19;129608;-37
2022/09/22 03:14:26;;;;;;;;;;;;;;;21.70;61.30;100199.88;7309500;19;130418;-37
2022/09/22 03:16:51;;;;;;;;;;;;;;;21.68;61.15;100199.16;7311144;19;129220;-37
2022/09/22 03:19:16;;;;;;;;;;;;;;;21.74;61.46;100200.47;7309634;19;129446;-37
2022/09/22 03:21:42;;;;;;;;;;;;;;;21.73;61.13;100198.81;7310085;19;130403;-38
2022/09/22 03:24:08;;;;;;;;;;;;;;;21.60;61.57;100178.03;7311635;19;130345;-37
2022/09/22 03:26:33;;;;;;;;;;;;;;;21.74;61.00;100190.00;7310961;19;129043;-37
2022/09/22 03:28:59;;;;;;;;;;;;;;;21.65;61.27;100175.06;7312323;19;129289;-37
2022/09/22 03:31:24;;;;;;;;;;;;;;;21.73;61.03;100191.78;7308458;19;130732;-37
2022/09/22 03:33:49;;;;;;;;;;;;;;;21.71;61.10;100195.47;7309526;19;130068;-37
2022/09/22 03:36:14;;;;;;;;;;;;;;;21.71;61.58;100188.47;7310737;19;129192;-38
2022/09/22 03:38:40;;;;;;;;;;;;;;;21.59;61.56;100176.38;7310488;19;128919;-37
2022/09/22 03:41:05;;;;;;;;;;;;;;;21.73;61.50;100183.91;7310218;19;129520;-37
2022/09/22 03:43:30;;;;;;;;;;;;;;;21.71;61.39;100185.84;7316999;19;129187;-37
2022/09/22 03:45:57;;;;;;;;;;;;;;;21.71;61.49;100179.78;7318556;19;129733;-37
2022/09/22 03:48:22;;;;;;;;;;;;;;;21.62;61.99;100170.91;7318380;19;129340;-38
2022/09/22 03:50:47;;;;;;;;;;;;;;;21.70;61.58;100197.25;7316683;19;129285;-37
2022/09/22 03:53:13;;;;;;;;;;;;;;;21.75;60.77;100187.25;7313888;19;131295;-37
2022/09/22 03:55:38;;;;;;;;;;;;;;;21.71;61.25;100191.09;7316313;19;129848;-37
2022/09/22 03:58:03;;;;;;;;;;;;;;;21.74;61.85;100184.75;7316395;19;130506;-37
2022/09/22 04:00:28;;;;;;;;;;;;;;;21.71;61.10;100198.94;7315715;19;130563;-37
2022/09/22 04:02:55;;;;;;;;;;;;;;;21.72;61.59;100186.66;7316256;19;130311;-37
2022/09/22 04:05:20;;;;;;;;;;;;;;;21.70;61.44;100183.38;7315710;19;129299;-37
2022/09/22 04:07:45;;;;;;;;;;;;;;;21.75;61.23;100187.25;7315029;19;130065;-37
2022/09/22 04:10:11;;;;;;;;;;;;;;;21.70;61.08;100184.19;7315835;19;130271;-37
2022/09/22 04:12:36;;;;;;;;;;;;;;;21.73;61.73;100185.72;7314173;19;129218;-37
2022/09/22 04:15:01;;;;;;;;;;;;;;;21.71;61.53;100185.84;7316085;19;129218;-37
2022/09/22 04:17:26;;;;;;;;;;;;;;;21.72;61.24;100182.28;7317206;19;129184;-37
2022/09/22 04:19:54;;;;;;;;;;;;;;;21.61;61.02;100166.63;7314868;19;129866;-37
2022/09/22 04:22:19;;;;;;;;;;;;;;;21.72;61.90;100191.91;7312532;19;130531;-37
2022/09/22 04:24:44;;;;;;;;;;;;;;;21.69;61.34;100193.00;7313785;19;130748;-37
2022/09/22 04:27:09;;;;;;;;;;;;;;;21.70;61.55;100186.78;7315838;19;129152;-37
2022/09/22 04:29:34;;;;;;;;;;;;;;;21.71;61.29;100185.00;7315260;19;129046;-37
2022/09/22 04:32:00;;;;;;;;;;;;;;;21.72;61.93;100187.50;7312663;19;130482;-37
2022/09/22 04:34:25;;;;;;;;;;;;;;;21.71;61.13;100180.63;7314470;19;129958;-37
2022/09/22 04:36:51;;;;;;;;;;;;;;;21.64;61.63;100171.59;7317024;19;128941;-37
2022/09/22 04:39:16;;;;;;;;;;;;;;;21.77;60.99;100185.38;7314252;19;130102;-38
2022/09/22 04:41:41;;;;;;;;;;;;;;;21.76;61.08;100180.22;7314485;19;129215;-38
2022/09/22 04:44:06;;;;;;;;;;;;;;;21.74;61.62;100182.97;7315071;19;129345;-37
2022/09/22 04:46:32;;;;;;;;;;;;;;;21.73;61.73;100173.44;7315718;19;129186;-37
2022/09/22 04:48:57;;;;;;;;;;;;;;;21.76;61.27;100190.69;7314497;19;129642;-37
2022/09/22 04:51:22;;;;;;;;;;;;;;;21.73;61.61;100189.16;7314347;19;130256;-38
2022/09/22 04:53:47;;;;;;;;;;;;;;;21.72;61.17;100200.59;7311167;19;129506;-37
2022/09/22 04:56:12;;;;;;;;;;;;;;;21.70;61.46;100205.13;7315580;19;129024;-37
2022/09/22 04:58:38;;;;;;;;;;;;;;;21.71;61.07;100206.78;7313687;19;129179;-37
2022/09/22 05:01:04;;;;;;;;;;;;;;;21.70;60.90;100207.72;7314180;19;129625;-37
2022/09/22 05:03:29;;;;;;;;;;;;;;;21.63;61.72;100195.28;7315074;19;128901;-37
2022/09/22 05:05:54;;;;;;;;;;;;;;;21.70;61.30;100210.34;7315153;19;129245;-37
2022/09/22 05:08:19;;;;;;;;;;;;;;;21.73;61.24;100211.91;7314475;19;129317;-37
2022/09/22 05:10:45;;;;;;;;;;;;;;;21.70;61.58;100212.97;7312957;19;130284;-37
2022/09/22 05:13:12;;;;;;;;;;;;;;;21.72;61.74;100213.69;7313918;19;129451;-37
2022/09/22 05:15:37;;;;;;;;;;;;;;;21.75;61.92;100207.38;7315045;19;130115;-37
2022/09/22 05:18:02;;;;;;;;;;;;;;;21.74;61.70;100214.38;7314923;19;130072;-37
2022/09/22 05:20:28;;;;;;;;;;;;;;;21.72;61.22;100220.69;7313669;19;129359;-37
2022/09/22 05:22:56;;;;;;;;;;;;;;;21.70;60.94;100220.81;7311801;19;129266;-37
2022/09/22 05:25:22;;;;;;;;;;;;;;;21.74;61.08;100217.00;7315442;19;129236;-37
2022/09/22 05:27:48;;;;;;;;;;;;;;;21.72;61.14;100210.22;7313895;19;129320;-37
2022/09/22 05:30:14;;;;;;;;;;;;;;;21.76;61.28;100222.97;7313834;19;129415;-37
2022/09/22 05:32:43;;;;;;;;;;;;;;;21.75;61.78;100218.66;7313094;19;129257;-37
2022/09/22 05:35:09;;;;;;;;;;;;;;;21.76;61.27;100222.97;7312419;19;129226;-37
2022/09/22 05:37:34;;;;;;;;;;;;;;;21.73;61.16;100223.19;7314790;19;130988;-37
2022/09/22 05:39:59;;;;;;;;;;;;;;;21.73;62.00;100220.56;7313028;19;131161;-37
2022/09/22 05:42:25;;;;;;;;;;;;;;;21.72;61.32;100229.38;7311080;19;129037;-37
2022/09/22 05:44:50;;;;;;;;;;;;;;;21.75;61.58;100234.34;7313899;19;129579;-37
2022/09/22 05:47:15;;;;;;;;;;;;;;;21.72;61.01;100226.75;7312971;19;129555;-38
2022/09/22 05:49:40;;;;;;;;;;;;;;;21.72;61.86;100224.13;7314793;19;130334;-37
2022/09/22 05:52:06;;;;;;;;;;;;;;;21.71;61.29;100230.34;7312054;19;128993;-37
2022/09/22 05:54:31;;;;;;;;;;;;;;;21.76;61.37;100230.84;7303053;19;129447;-37
2022/09/22 05:56:56;;;;;;;;;;;;;;;21.77;61.50;100226.41;7304987;19;130448;-37
2022/09/22 05:59:22;;;;;;;;;;;;;;;21.76;61.84;100225.59;7313076;19;131767;-38
2022/09/22 06:01:47;;;;;;;;;;;;;;;21.74;61.32;100232.72;7312141;19;129226;-37
2022/09/22 06:04:12;;;;;;;;;;;;;;;21.64;61.85;100215.25;7313224;19;129005;-37
2022/09/22 06:06:38;;;;;;;;;;;;;;;21.75;61.87;100229.13;7312506;19;130412;-37
2022/09/22 06:09:03;;;;;;;;;;;;;;;21.67;61.02;100223.69;7313525;19;130320;-37
2022/09/22 06:11:28;;;;;;;;;;;;;;;21.72;61.40;100234.63;7312742;19;129473;-37
2022/09/22 06:13:53;;;;;;;;;;;;;;;21.67;61.04;100231.53;7312687;19;128982;-37
2022/09/22 06:16:19;;;;;;;;;;;;;;;21.70;61.78;100236.50;7311366;19;130290;-37
2022/09/22 06:18:47;;;;;;;;;;;;;;;21.69;61.56;100234.03;7308046;19;131361;-37
2022/09/22 06:21:13;;;;;;;;;;;;;;;21.59;61.38;100228.72;7310765;19;129133;-37
2022/09/22 06:23:38;;;;;;;;;;;;;;;21.65;61.50;100243.09;7312056;19;129054;-37
2022/09/22 06:26:04;;;;;;;;;;;;;;;21.71;61.59;100247.81;7297179;19;130673;-37
2022/09/22 06:28:29;;;;;;;;;;;;;;;21.74;61.13;100239.72;7309449;19;130378;-37
2022/09/22 06:30:56;;;;;;;;;;;;;;;21.74;61.32;100235.31;7310468;19;129982;-37
2022/09/22 06:33:22;;;;;;;;;;;;;;;21.76;61.75;100241.31;7311775;19;129765;-37
2022/09/22 06:35:48;;;;;;;;;;;;;;;21.76;61.36;100241.31;7312595;19;130296;-37
2022/09/22 06:38:13;;;;;;;;;;;;;;;21.75;61.35;100239.59;7311503;19;130106;-37
2022/09/22 06:40:40;;;;;;;;;;;;;;;21.77;61.28;100244.72;7310949;19;129587;-37
2022/09/22 06:43:11;;;;;;;;;;;;;;;21.74;61.89;100243.19;7309667;19;129195;-37
2022/09/22 06:45:41;;;;;;;;;;;;;;;21.72;61.63;100234.63;7312323;19;129848;-37
2022/09/22 06:48:07;;;;;;;;;;;;;;;21.71;60.85;100230.34;7310945;19;130232;-37
2022/09/22 06:50:32;;;;;;;;;;;;;;;21.70;61.61;100235.72;7310333;19;128986;-37
2022/09/22 06:53:01;;;;;;;;;;;;;;;21.71;61.54;100238.19;7310978;19;129461;-37
2022/09/22 06:55:27;;;;;;;;;;;;;;;21.73;61.22;100236.25;7309888;19;130265;-37
2022/09/22 06:57:54;;;;;;;;;;;;;;;21.74;61.37;100232.72;7311496;19;129576;-37
2022/09/22 07:00:19;;;;;;;;;;;;;;;21.70;61.20;100239.13;7311159;19;129845;-37
2022/09/22 07:02:45;;;;;;;;;;;;;;;21.74;61.20;100235.31;7308768;19;129654;-37
2022/09/22 07:05:11;;;;;;;;;;;;;;;21.73;61.68;100224.97;7311600;19;129894;-37
2022/09/22 07:07:36;;;;;;;;;;;;;;;21.73;61.57;100238.88;7311893;19;130655;-37
2022/09/22 07:10:02;;;;;;;;;;;;;;;21.74;61.80;100243.19;7309676;19;129707;-37
2022/09/22 07:12:27;;;;;;;;;;;;;;;21.75;61.08;100242.22;7307261;19;129606;-37
2022/09/22 07:14:53;;;;;;;;;;;;;;;21.76;61.42;100243.06;7308818;19;129505;-37
2022/09/22 07:17:22;;;;;;;;;;;;;;;21.64;61.36;100230.94;7309567;19;129566;-37
2022/09/22 07:19:47;;;;;;;;;;;;;;;21.75;61.78;100250.06;7310041;19;129578;-37
2022/09/22 07:22:14;;;;;;;;;;;;;;;21.74;61.85;100248.41;7307050;19;129014;-37
2022/09/22 07:24:40;;;;;;;;;;;;;;;21.62;61.20;100223.22;7311287;19;129671;-37
2022/09/22 07:27:05;;;;;;;;;;;;;;;21.76;61.62;100240.44;7310318;19;130949;-37
2022/09/22 07:29:31;;;;;;;;;;;;;;;21.73;61.93;100238.88;7310822;19;129583;-37
2022/09/22 07:31:57;;;;;;;;;;;;;;;21.76;61.50;100240.44;7308926;19;129640;-37
2022/09/22 07:34:23;;;;;;;;;;;;;;;21.72;61.45;100242.47;7309306;19;130156;-37
2022/09/22 07:36:48;;;;;;;;;;;;;;;21.67;61.31;100228.91;7310864;19;129229;-37
2022/09/22 07:39:13;;;;;;;;;;;;;;;21.74;62.06;100242.34;7311090;19;129207;-38
2022/09/22 07:41:42;;;;;;;;;;;;;;;21.75;61.82;100249.25;7309795;19;129382;-37
2022/09/22 07:46:52;;;;;;;;;;;;;;;21.75;61.66;100244.81;7311758;19;130691;-37
2022/09/22 07:49:19;;;;;;;;;;;;;;;21.76;61.25;100243.06;7310228;19;128689;-38
2022/09/22 07:51:44;;;;;;;;;;;;;;;21.76;61.47;100241.31;7307008;19;129057;-37
2022/09/22 07:54:10;;;;;;;;;;;;;;;21.73;61.40;100243.31;7308834;19;129792;-37
2022/09/22 07:56:39;;;;;;;;;;;;;;;21.74;61.16;100243.19;7311524;19;129543;-37
2022/09/22 07:59:06;;;;;;;;;;;;;;;21.71;61.65;100240.81;7310723;19;129276;-37
2022/09/22 08:01:31;;;;;;;;;;;;;;;21.71;61.85;100238.19;7308603;19;129417;-37
2022/09/22 08:03:57;;;;;;;;;;;;;;;21.73;61.76;100241.50;7310021;19;129392;-37
2022/09/22 08:06:22;;;;;;;;;;;;;;;21.76;61.98;100251.78;7309555;19;129193;-37
2022/09/22 08:08:52;;;;;;;;;;;;;;;21.79;61.29;100248.06;7309775;19;128929;-38
2022/09/22 08:11:24;;;;;;;;;;;;;;;21.80;61.67;100244.47;7309250;19;129146;-37
2022/09/22 08:13:49;;;;;;;;;;;;;;;21.80;61.10;100257.56;7310326;19;129771;-38
2022/09/22 08:16:17;;;;;;;;;;;;;;;21.81;61.17;100244.38;7309815;19;129505;-37
2022/09/22 08:18:42;;;;;;;;;;;;;;;21.68;61.14;100233.19;7311074;19;128965;-38
2022/09/22 08:21:07;;;;;;;;;;;;;;;21.76;62.01;100254.38;7309284;19;129986;-37
2022/09/22 08:23:33;;;;;;;;;;;;;;;21.74;61.82;100253.66;7309896;19;129514;-37
2022/09/22 08:26:02;;;;;;;;;;;;;;;21.72;61.46;100250.31;7310171;19;129282;-37
2022/09/22 08:28:28;;;;;;;;;;;;;;;21.74;61.57;100251.03;7313374;19;129360;-37
2022/09/22 08:30:53;;;;;;;;;;;;;;;21.74;62.02;100252.81;7315789;19;128839;-37
2022/09/22 08:33:19;;;;;;;;;;;;;;;21.72;61.77;100254.72;7315252;19;129193;-37
2022/09/22 08:35:54;;;;;;;;;;;;;;;21.72;61.65;100258.16;7315230;19;130036;-37
2022/09/22 08:38:21;;;;;;;;;;;;;;;21.73;61.98;100251.97;7317881;19;129307;-37
2022/09/22 08:40:51;;;;;;;;;;;;;;;21.73;61.18;100251.16;7315154;19;129612;-37
2022/09/22 08:43:16;;;;;;;;;;;;;;;21.61;61.38;100236.44;7316500;19;129590;-37
2022/09/22 08:45:45;;;;;;;;;;;;;;;21.71;61.70;100259.13;7317356;19;129184;-37
2022/09/22 08:53:50;;;;;;;;;;;;;;;21.71;61.53;100253.91;7316466;19;129486;-37
2022/09/22 08:56:29;;;;;;;;;;;;;;;21.71;61.57;100251.28;7316261;19;130620;-37
2022/09/22 08:59:14;;;;;;;;;;;;;;;21.72;61.27;100250.31;7315202;19;130564;-37
2022/09/22 09:01:41;;;;;;;;;;;;;;;21.71;61.85;100248.66;7314311;19;129430;-37
2022/09/22 09:04:12;;;;;;;;;;;;;;;21.74;61.47;100248.41;7315982;19;130006;-37
2022/09/22 09:06:40;;;;;;;;;;;;;;;21.77;61.57;100248.19;7315738;19;129106;-37
2022/09/22 09:09:15;;;;;;;;;;;;;;;21.76;61.69;100248.28;7311146;19;129199;-38
2022/09/22 09:11:52;;;;;;;;;;;;;;;21.74;61.51;100253.66;7314480;19;129523;-38
2022/09/22 09:14:26;;;;;;;;;;;;;;;21.73;61.26;100249.34;7315297;19;130192;-37
2022/09/22 09:16:56;;;;;;;;;;;;;;;21.73;61.54;100249.34;7316192;19;129221;-37
2022/09/22 09:19:23;;;;;;;;;;;;;;;21.73;62.15;100246.72;7315465;19;128953;-38
2022/09/22 09:21:50;;;;;;;;;;;;;;;21.75;62.08;100255.28;7313181;19;128964;-37
2022/09/22 09:24:39;;;;;;;;;;;;;;;21.76;61.64;100259.63;7315668;19;129546;-37
2022/09/22 09:27:11;;;;;;;;;;;;;;;21.74;61.49;100253.66;7314410;19;131088;-37
2022/09/22 09:29:56;;;;;;;;;;;;;;;21.75;61.39;100249.25;7315248;19;128854;-37
2022/09/22 09:32:33;;;;;;;;;;;;;;;21.77;62.01;100255.19;7311064;19;131753;-37
2022/09/22 09:34:59;;;;;;;;;;;;;;;21.73;61.91;100249.34;7313058;19;130315;-37
2022/09/22 09:37:24;;;;;;;;;;;;;;;21.73;61.82;100251.16;7313973;19;130375;-38
2022/09/22 09:39:50;;;;;;;;;;;;;;;21.74;61.71;100242.34;7313324;19;128823;-37
2022/09/22 09:42:23;;;;;;;;;;;;;;;21.72;61.78;100245.09;7311974;19;129447;-37
2022/09/22 09:44:52;;;;;;;;;;;;;;;21.80;61.99;100242.69;7316055;19;130172;-37
2022/09/22 09:47:39;;;;;;;;;;;;;;;21.81;61.64;100244.38;7313704;19;129903;-37
2022/09/22 09:50:05;;;;;;;;;;;;;;;21.78;61.52;100244.59;7314868;19;129533;-37
2022/09/22 09:52:32;;;;;;;;;;;;;;;21.77;61.76;100242.94;7311444;19;129733;-37
2022/09/22 09:54:59;;;;;;;;;;;;;;;21.77;61.90;100240.34;7312556;19;129463;-37
2022/09/22 09:57:26;;;;;;;;;;;;;;;21.77;62.29;100242.94;7313488;19;130392;-37
2022/09/22 10:03:09;;;;;;;;;;;;;;;21.74;61.71;100242.34;7313612;19;129529;-37
2022/09/22 10:05:36;;;;;;;;;;;;;;;21.72;62.04;100234.63;7313625;19;130469;-37
2022/09/22 10:08:22;;;;;;;;;;;;;;;21.77;61.99;100237.72;7314284;19;130232;-37
2022/09/22 10:10:47;;;;;;;;;;;;;;;21.70;62.02;100217.38;7313110;19;129034;-37
2022/09/22 10:13:13;;;;;;;;;;;;;;;21.74;61.74;100222.25;7313606;19;128911;-37
2022/09/22 10:15:39;;;;;;;;;;;;;;;21.74;61.81;100227.47;7311432;19;129349;-37
2022/09/22 10:18:23;;;;;;;;;;;;;;;21.76;61.96;100228.22;7313759;19;129543;-37
2022/09/22 10:21:00;;;;;;;;;;;;;;;21.76;62.17;100230.84;7313051;19;129245;-37
2022/09/22 10:23:26;;;;;;;;;;;;;;;21.72;61.56;100216.28;7313204;19;129094;-37
2022/09/22 10:26:00;;;;;;;;;;;;;;;21.73;61.93;100219.75;7314601;19;130308;-37
2022/09/22 10:28:25;;;;;;;;;;;;;;;21.72;61.79;100218.91;7312832;19;129381;-37
2022/09/22 10:30:57;;;;;;;;;;;;;;;21.74;61.49;100219.63;7312547;19;129017;-37
2022/09/22 10:33:23;;;;;;;;;;;;;;;21.65;61.50;100202.03;7313693;19;129121;-37
2022/09/22 10:36:07;;;;;;;;;;;;;;;21.70;61.66;100215.56;7312273;19;129522;-37
2022/09/22 10:38:34;;;;;;;;;;;;;;;21.71;61.96;100206.78;7313095;19;129667;-38
2022/09/22 10:41:09;;;;;;;;;;;;;;;21.70;61.67;100207.72;7314741;19;129351;-37
2022/09/22 10:43:43;;;;;;;;;;;;;;;21.74;61.85;100211.78;7311888;19;129674;-37
2022/09/22 10:46:09;;;;;;;;;;;;;;;21.71;61.52;100214.66;7313598;19;131154;-37
2022/09/22 10:48:43;;;;;;;;;;;;;;;21.73;61.55;100214.50;7313270;19;130278;-37
2022/09/22 10:51:14;;;;;;;;;;;;;;;21.60;62.08;100204.19;7309523;19;129437;-38
2022/09/22 10:54:15;;;;;;;;;;;;;;;21.60;62.13;100191.13;7313057;19;128869;-37
2022/09/22 10:56:44;;;;;;;;;;;;;;;21.71;61.96;100209.41;7307920;19;129624;-37
2022/09/22 10:59:24;;;;;;;;;;;;;;;21.75;61.85;100207.38;7311665;19;129696;-37
2022/09/22 11:01:50;;;;;;;;;;;;;;;21.72;62.33;100208.44;7309876;19;129182;-37
2022/09/22 11:04:30;;;;;;;;;;;;;;;21.73;61.78;100204.84;7312561;19;129235;-37
2022/09/22 11:12:36;;;;;;;;;;;;;;;21.78;61.86;100197.50;7309372;19;132234;-37
2022/09/22 11:15:10;;;;;;;;;;;;;;;21.76;61.82;100193.31;7311472;19;129220;-37
2022/09/22 11:17:52;;;;;;;;;;;;;;;21.75;61.93;100189.88;7312905;19;129095;-37
2022/09/22 11:20:26;;;;;;;;;;;;;;;21.75;61.89;100194.28;7311664;19;129770;-37
2022/09/22 11:22:57;;;;;;;;;;;;;;;21.76;61.46;100194.19;7308763;19;129017;-37
2022/09/22 11:25:34;;;;;;;;;;;;;;;21.73;62.00;100191.78;7312742;19;129019;-37
2022/09/22 11:28:19;;;;;;;;;;;;;;;21.74;62.19;100196.06;7311452;19;130834;-37
2022/09/22 11:30:56;;;;;;;;;;;;;;;21.75;61.66;100191.66;7309427;19;129289;-37
2022/09/22 11:33:39;;;;;;;;;;;;;;;21.72;61.59;100197.97;7312301;19;129257;-37
2022/09/22 11:36:14;;;;;;;;;;;;;;;21.73;61.69;100194.38;7310522;19;129690;-37
2022/09/22 11:38:39;;;;;;;;;;;;;;;21.71;61.53;100185.84;7311884;19;130557;-37
2022/09/22 11:41:24;;;;;;;;;;;;;;;21.74;61.66;100185.59;7310312;19;129522;-37
2022/09/22 11:43:50;;;;;;;;;;;;;;;21.73;62.07;100178.69;7312122;19;129413;-37
2022/09/22 11:46:29;;;;;;;;;;;;;;;21.75;61.73;100179.41;7311530;19;129344;-37
2022/09/22 11:48:54;;;;;;;;;;;;;;;21.72;61.58;100187.50;7310866;19;129458;-37
2022/09/22 11:51:25;;;;;;;;;;;;;;;21.73;61.48;100183.91;7309926;19;129118;-37
2022/09/22 11:54:07;;;;;;;;;;;;;;;21.73;61.83;100176.06;7310766;19;129172;-37
2022/09/22 11:56:48;;;;;;;;;;;;;;;21.74;61.77;100174.28;7311426;19;128952;-37
2022/09/22 11:59:24;;;;;;;;;;;;;;;21.72;62.01;100171.81;7310145;19;130931;-38
2022/09/22 12:01:52;;;;;;;;;;;;;;;21.75;61.82;100176.78;7309565;19;130516;-37
2022/09/22 12:04:20;;;;;;;;;;;;;;;21.73;61.72;100173.44;7319260;19;130260;-38
2022/09/22 12:06:49;;;;;;;;;;;;;;;21.62;62.06;100157.81;7318483;19;129051;-38
2022/09/22 12:09:17;;;;;;;;;;;;;;;21.80;61.81;100173.81;7316622;19;130716;-37
2022/09/22 12:11:42;;;;;;;;;;;;;;;21.83;61.73;100169.16;7313575;19;129564;-37
2022/09/22 12:14:12;;;;;;;;;;;;;;;21.76;61.82;100175.88;7314004;19;128976;-37
2022/09/22 12:16:40;;;;;;;;;;;;;;;21.77;62.00;100163.59;7317638;19;129422;-38
2022/09/22 12:19:12;;;;;;;;;;;;;;;21.77;61.58;100160.97;7317514;19;130223;-37
2022/09/22 12:21:40;;;;;;;;;;;;;;;21.67;61.97;100147.78;7311362;19;130401;-37
2022/09/22 12:24:09;;;;;;;;;;;;;;;21.67;62.05;100144.34;7316825;19;129037;-38
2022/09/22 12:26:36;;;;;;;;;;;;;;;21.74;62.15;100159.44;7315891;19;129326;-38
2022/09/22 12:29:06;;;;;;;;;;;;;;;21.75;61.83;100158.47;7314759;19;130487;-38
2022/09/22 12:31:34;;;;;;;;;;;;;;;21.75;62.08;100152.41;7313787;19;131619;-35
2022/09/22 12:34:00;;;;;;;;;;;;;;;21.75;61.56;100152.41;7317688;19;129568;-37
2022/09/22 12:36:33;;;;;;;;;;;;;;;21.73;62.26;100147.28;7313621;19;129345;-37
2022/09/22 12:39:25;;;;;;;;;;;;;;;21.76;61.57;100147.09;7315061;19;130012;-37
2022/09/22 12:41:51;;;;;;;;;;;;;;;21.75;61.79;100145.38;7313084;19;130241;-38
2022/09/22 12:44:24;;;;;;;;;;;;;;;21.77;61.22;100146.09;7315679;19;129002;-37
2022/09/22 12:46:50;;;;;;;;;;;;;;;21.77;62.02;100138.25;7315542;19;128887;-37
2022/09/22 12:49:17;;;;;;;;;;;;;;;21.75;61.92;100134.09;7315213;19;130230;-37
2022/09/22 12:51:44;;;;;;;;;;;;;;;21.74;62.21;100146.34;7312923;19;129285;-37
2022/09/22 12:54:21;;;;;;;;;;;;;;;21.76;61.83;100136.63;7313766;19;128988;-37